Terminal Aerodrome Forecast
Issued by NWS Sterling, VA

Current Version | Previous Version | Graphics & Text | Print | Product List | Glossary On
Versions: 1 2 3 4 5 6 7 8 9 10 11 12 13 14 15 16
637
FTUS41 KLWX 031912 AAA
TAFMRB
TAF AMD
KMRB 031912Z 0319/0418 VRB05KT 1SM -RA BR OVC002
     FM032100 23005KT P6SM OVC120
     FM040100 30006KT 3SM BR BKN030
     FM041000 32009KT 5SM BR OVC100=

USA.gov is the U.S. government's official web portal to all federal, state and local government web resources and services.